createdAt,value
2023-05-15T00:00:15.849Z,46.40
2023-05-15T00:02:46.160Z,44.50
2023-05-15T00:05:18.574Z,45.67
2023-05-15T00:07:49.825Z,43.67
2023-05-15T00:10:19.425Z,47.53
2023-05-15T00:12:50.017Z,45.90
2023-05-15T00:15:24.825Z,45.53
2023-05-15T00:17:56.616Z,45.07
2023-05-15T00:20:33.313Z,47.90
2023-05-15T00:23:05.473Z,45.73
2023-05-15T00:25:34.908Z,45.90
2023-05-15T00:28:09.609Z,43.70
2023-05-15T00:30:39.911Z,44.50
2023-05-15T00:33:11.074Z,42.50
2023-05-15T00:35:42.414Z,41.03
2023-05-15T00:38:14.427Z,41.10
2023-05-15T00:41:07.312Z,40.13
2023-05-15T00:44:06.832Z,43.53
2023-05-15T00:47:01.687Z,42.47
2023-05-15T00:49:59.756Z,43.93
2023-05-15T00:53:00.537Z,44.23
2023-05-15T00:55:54.302Z,44.27
2023-05-15T00:58:52.337Z,43.10
2023-05-15T01:01:49.351Z,42.70
2023-05-15T01:04:43.419Z,42.67
2023-05-15T01:07:42.954Z,41.93
2023-05-15T01:10:28.534Z,42.77
2023-05-15T01:13:15.331Z,40.83
2023-05-15T01:16:11.377Z,37.13
2023-05-15T01:18:49.218Z,38.60
2023-05-15T01:22:30.692Z,39.10
2023-05-15T01:25:54.851Z,40.20
2023-05-15T01:28:38.040Z,40.57
2023-05-15T01:31:22.048Z,40.37
2023-05-15T01:34:01.950Z,42.13
2023-05-15T01:36:40.164Z,42.60
2023-05-15T01:39:17.442Z,41.43
2023-05-15T01:42:14.926Z,43.17
2023-05-15T01:45:35.091Z,39.90
2023-05-15T01:48:12.607Z,43.27
2023-05-15T01:50:51.202Z,41.13
2023-05-15T01:53:30.282Z,44.97
2023-05-15T01:56:09.567Z,45.73
2023-05-15T01:58:40.169Z,42.43
2023-05-15T02:01:31.618Z,41.77
2023-05-15T02:04:04.991Z,40.47
2023-05-15T02:06:58.697Z,43.27
2023-05-15T02:10:04.101Z,42.67
2023-05-15T02:13:06.014Z,42.60
2023-05-15T02:15:40.605Z,42.40
2023-05-15T02:18:43.531Z,43.03
2023-05-15T02:21:26.158Z,42.00
2023-05-15T02:24:16.835Z,41.97
2023-05-15T02:27:31.555Z,42.50
2023-05-15T02:30:38.454Z,43.43
2023-05-15T02:33:42.023Z,42.43
2023-05-15T02:36:32.744Z,46.67
2023-05-15T02:39:18.730Z,46.60
2023-05-15T02:42:08.787Z,45.53
2023-05-15T02:44:46.839Z,43.17
2023-05-15T02:47:26.737Z,44.37
2023-05-15T02:50:12.160Z,44.30
2023-05-15T02:52:41.696Z,45.40
2023-05-15T02:55:15.913Z,44.13
2023-05-15T02:57:46.428Z,43.13
2023-05-15T03:00:18.735Z,45.53
2023-05-15T03:02:51.404Z,43.83
2023-05-15T03:05:26.902Z,44.30
2023-05-15T03:08:00.586Z,45.63
2023-05-15T03:10:38.611Z,44.10
2023-05-15T03:13:09.435Z,46.73
2023-05-15T03:15:41.247Z,43.93
2023-05-15T03:18:11.783Z,44.93
2023-05-15T03:20:44.186Z,46.87
2023-05-15T03:23:17.087Z,44.37
2023-05-15T03:25:49.846Z,44.60
2023-05-15T03:28:37.803Z,44.47
2023-05-15T03:31:15.522Z,41.17
2023-05-15T03:34:03.103Z,42.33
2023-05-15T03:37:04.993Z,39.43
2023-05-15T03:40:03.439Z,39.37
2023-05-15T03:42:54.461Z,39.10
2023-05-15T03:46:07.179Z,35.17
2023-05-15T03:48:59.627Z,34.70
2023-05-15T03:52:10.782Z,33.77
2023-05-15T03:55:09.867Z,35.63
2023-05-15T03:58:03.278Z,34.90
2023-05-15T04:04:06.896Z,36.83
2023-05-15T04:07:03.402Z,37.83
2023-05-15T04:13:22.356Z,37.77
2023-05-15T04:15:55.845Z,38.67
2023-05-15T04:18:28.146Z,40.03
2023-05-15T04:21:00.317Z,41.63
2023-05-15T04:23:34.907Z,38.80
2023-05-15T04:26:08.197Z,37.63
2023-05-15T04:28:40.269Z,36.97
2023-05-15T04:31:13.659Z,38.17
2023-05-15T04:33:43.256Z,36.83
2023-05-15T04:36:13.338Z,39.90
2023-05-15T04:38:43.192Z,38.70
2023-05-15T04:41:17.204Z,37.80
2023-05-15T04:43:46.980Z,38.40
2023-05-15T04:46:23.723Z,36.13
2023-05-15T04:48:56.755Z,30.80
2023-05-15T04:51:36.638Z,30.33
2023-05-15T04:54:08.218Z,29.40
2023-05-15T04:56:44.352Z,30.93
2023-05-15T04:59:16.328Z,28.67
2023-05-15T05:01:46.457Z,29.23
2023-05-15T05:04:21.776Z,29.40
2023-05-15T05:06:53.705Z,29.13
2023-05-15T05:09:45.470Z,29.90
2023-05-15T05:12:17.213Z,32.10
2023-05-15T05:14:47.012Z,33.17
2023-05-15T05:17:17.261Z,31.47
2023-05-15T05:19:48.030Z,32.00
2023-05-15T05:22:18.461Z,31.63
2023-05-15T05:24:59.992Z,31.77
2023-05-15T05:27:33.376Z,32.07
2023-05-15T05:30:03.542Z,30.50
2023-05-15T05:32:33.553Z,31.03
2023-05-15T05:35:04.759Z,31.87
2023-05-15T05:37:34.661Z,32.10
2023-05-15T05:40:18.047Z,30.87
2023-05-15T05:42:50.222Z,30.90
2023-05-15T05:45:22.049Z,29.33
2023-05-15T05:47:55.852Z,30.47
2023-05-15T05:50:27.177Z,29.90
2023-05-15T05:52:59.680Z,27.63
2023-05-15T05:55:32.359Z,28.20
2023-05-15T05:58:14.578Z,27.80
2023-05-15T06:00:48.479Z,26.50
2023-05-15T06:03:18.681Z,26.93
2023-05-15T06:05:49.002Z,27.13
2023-05-15T06:08:27.937Z,26.00
2023-05-15T06:11:17.380Z,26.60
2023-05-15T06:13:48.314Z,25.70
2023-05-15T06:16:19.021Z,25.77
2023-05-15T06:18:51.003Z,26.00
2023-05-15T06:21:23.100Z,25.00
2023-05-15T06:23:56.875Z,25.47
2023-05-15T06:26:30.284Z,25.03
2023-05-15T06:29:03.877Z,25.17
2023-05-15T06:31:34.602Z,24.63
2023-05-15T06:34:18.245Z,24.10
2023-05-15T06:36:48.556Z,24.63
2023-05-15T06:39:21.290Z,25.17
2023-05-15T06:41:50.186Z,24.20
2023-05-15T06:44:29.997Z,25.07
2023-05-15T06:47:01.936Z,23.33
2023-05-15T06:49:34.638Z,23.23
2023-05-15T06:52:06.720Z,24.27
2023-05-15T06:54:43.999Z,25.00
2023-05-15T06:57:17.943Z,24.90
2023-05-15T06:59:48.948Z,25.83
2023-05-15T07:02:21.856Z,24.17
2023-05-15T07:04:54.810Z,25.17
2023-05-15T07:07:28.478Z,26.77
2023-05-15T07:09:59.777Z,24.40
2023-05-15T07:12:41.787Z,25.60
2023-05-15T07:15:18.892Z,24.37
2023-05-15T07:17:50.201Z,23.73
2023-05-15T07:20:23.810Z,22.17
2023-05-15T07:23:00.722Z,20.70
2023-05-15T07:25:34.774Z,20.37
2023-05-15T07:28:04.128Z,21.67
2023-05-15T07:30:44.718Z,19.00
2023-05-15T07:33:16.530Z,20.40
2023-05-15T07:35:48.318Z,19.60
2023-05-15T07:38:18.917Z,20.60
2023-05-15T07:40:49.339Z,19.30
2023-05-15T07:43:23.294Z,18.87
2023-05-15T07:45:54.985Z,18.83
2023-05-15T07:48:36.488Z,16.73
2023-05-15T07:51:08.058Z,16.60
2023-05-15T07:53:46.281Z,16.23
2023-05-15T07:56:19.241Z,15.97
2023-05-15T07:59:02.026Z,17.17
2023-05-15T08:01:38.645Z,16.83
2023-05-15T08:04:20.889Z,17.47
2023-05-15T08:06:53.936Z,15.67
2023-05-15T08:09:33.626Z,16.30
2023-05-15T08:12:25.904Z,16.50
2023-05-15T08:14:57.862Z,14.47
2023-05-15T08:17:30.230Z,14.37
2023-05-15T08:20:02.973Z,14.73
2023-05-15T08:22:34.624Z,15.73
2023-05-15T08:25:07.504Z,15.67
2023-05-15T08:27:38.169Z,16.13
2023-05-15T08:30:13.216Z,15.37
2023-05-15T08:32:49.528Z,15.47
2023-05-15T08:35:30.530Z,15.90
2023-05-15T08:38:04.145Z,14.67
2023-05-15T08:40:39.232Z,15.40
2023-05-15T08:43:22.114Z,14.77
2023-05-15T08:45:58.019Z,14.37
2023-05-15T08:48:37.466Z,14.40
2023-05-15T08:51:12.381Z,14.40
2023-05-15T08:53:48.712Z,13.60
2023-05-15T08:56:22.693Z,12.83
2023-05-15T08:58:54.922Z,12.40
2023-05-15T09:01:27.511Z,11.87
2023-05-15T09:04:01.386Z,13.17
2023-05-15T09:06:30.721Z,12.17
2023-05-15T09:09:04.350Z,12.03
2023-05-15T09:11:38.962Z,12.00
2023-05-15T09:14:09.480Z,12.63
2023-05-15T09:16:47.257Z,12.67
2023-05-15T09:19:24.050Z,12.40
2023-05-15T09:21:53.759Z,12.63
2023-05-15T09:24:38.429Z,11.10
2023-05-15T09:27:11.850Z,11.90
2023-05-15T09:29:44.710Z,12.53
2023-05-15T09:32:16.565Z,12.00
2023-05-15T09:34:49.179Z,11.50
2023-05-15T09:37:34.408Z,11.33
2023-05-15T09:40:11.791Z,11.57
2023-05-15T09:42:54.007Z,11.17
2023-05-15T09:45:35.915Z,10.60
2023-05-15T09:48:13.126Z,11.07
2023-05-15T09:50:47.392Z,10.87
2023-05-15T09:53:21.503Z,10.53
2023-05-15T09:55:52.683Z,9.70
2023-05-15T09:58:33.144Z,11.17
2023-05-15T10:01:05.027Z,11.30
2023-05-15T10:03:35.046Z,9.97
2023-05-15T10:06:09.981Z,12.00
2023-05-15T10:08:43.413Z,11.93
2023-05-15T10:11:17.156Z,12.00
2023-05-15T10:13:49.156Z,11.07
2023-05-15T10:16:26.021Z,11.93
2023-05-15T10:18:58.803Z,11.80
2023-05-15T10:21:35.167Z,11.53
2023-05-15T10:24:07.905Z,11.83
2023-05-15T10:27:00.408Z,12.40
2023-05-15T10:29:33.292Z,12.07
2023-05-15T10:32:15.599Z,12.07
2023-05-15T10:34:46.632Z,11.83
2023-05-15T10:37:28.968Z,11.47
2023-05-15T10:40:08.182Z,13.63
2023-05-15T10:42:41.352Z,12.80
2023-05-15T10:45:13.181Z,12.40
2023-05-15T10:47:52.791Z,13.33
2023-05-15T10:50:27.652Z,12.83
2023-05-15T10:53:02.618Z,13.47
2023-05-15T10:55:44.871Z,12.17
2023-05-15T10:58:15.920Z,11.87
2023-05-15T11:00:47.658Z,12.53
2023-05-15T11:03:34.872Z,13.70
2023-05-15T11:06:14.412Z,12.87
2023-05-15T11:08:49.180Z,12.17
2023-05-15T11:11:58.234Z,14.10
2023-05-15T11:14:37.185Z,13.07
2023-05-15T11:17:16.560Z,13.00
2023-05-15T11:20:04.356Z,12.37
2023-05-15T11:22:37.626Z,11.83
2023-05-15T11:25:14.752Z,11.77
2023-05-15T11:27:55.066Z,11.55
2023-05-15T11:30:38.887Z,12.55
2023-05-15T11:33:14.079Z,11.55
2023-05-15T11:35:48.828Z,11.07
2023-05-15T11:38:23.337Z,9.70
2023-05-15T11:41:03.661Z,9.70
2023-05-15T11:43:35.427Z,10.35
2023-05-15T11:46:09.615Z,10.00
2023-05-15T11:48:41.800Z,9.20
2023-05-15T11:51:27.724Z,8.98
2023-05-15T11:54:03.481Z,10.00
2023-05-15T11:56:35.195Z,9.98
2023-05-15T11:59:05.970Z,9.00
2023-05-15T12:01:50.128Z,10.32
2023-05-15T12:04:26.761Z,10.80
2023-05-15T12:07:03.297Z,9.85
2023-05-15T12:09:35.568Z,10.73
2023-05-15T12:12:09.944Z,11.32
2023-05-15T12:14:52.723Z,10.10
2023-05-15T12:17:26.177Z,10.60
2023-05-15T12:20:00.874Z,10.63
2023-05-15T12:22:31.040Z,10.20
2023-05-15T12:25:04.258Z,9.90
2023-05-15T12:27:37.844Z,10.00
2023-05-15T12:30:11.236Z,9.85
2023-05-15T12:32:47.475Z,12.25
2023-05-15T12:35:25.568Z,12.10
2023-05-15T12:38:06.885Z,11.52
2023-05-15T12:40:38.279Z,10.52
2023-05-15T12:43:10.251Z,10.13
2023-05-15T12:45:44.900Z,9.93
2023-05-15T12:48:17.264Z,10.00
2023-05-15T12:51:06.516Z,8.65
2023-05-15T12:53:40.256Z,9.90
2023-05-15T12:56:12.829Z,10.15
2023-05-15T12:58:43.139Z,9.80
2023-05-15T13:01:25.480Z,8.90
2023-05-15T13:03:56.823Z,10.15
2023-05-15T13:06:45.729Z,12.02
2023-05-15T13:09:29.374Z,9.88
2023-05-15T13:12:00.712Z,10.25
2023-05-15T13:14:38.482Z,8.10
2023-05-15T13:17:10.172Z,9.45
2023-05-15T13:19:41.718Z,9.48
2023-05-15T13:22:12.184Z,9.48
2023-05-15T13:24:46.281Z,8.35
2023-05-15T13:27:34.535Z,9.40
2023-05-15T13:30:09.065Z,10.27
2023-05-15T13:32:38.823Z,10.15
2023-05-15T13:35:13.321Z,8.40
2023-05-15T13:37:43.481Z,8.95
2023-05-15T13:40:15.576Z,7.90
2023-05-15T13:42:46.738Z,7.45
2023-05-15T13:45:20.160Z,7.43
2023-05-15T13:47:53.771Z,7.88
2023-05-15T13:50:32.138Z,8.18
2023-05-15T13:53:01.540Z,7.85
2023-05-15T13:55:35.706Z,8.20
2023-05-15T13:58:06.352Z,8.38
2023-05-15T14:00:40.445Z,7.60
2023-05-15T14:03:18.416Z,8.60
2023-05-15T14:05:49.208Z,8.98
2023-05-15T14:08:20.339Z,8.82
2023-05-15T14:10:51.475Z,9.00
2023-05-15T14:13:23.831Z,6.93
2023-05-15T14:15:59.753Z,6.18
2023-05-15T14:18:31.806Z,6.63
2023-05-15T14:21:02.714Z,7.47
2023-05-15T14:23:34.638Z,8.32
2023-05-15T14:26:06.820Z,6.43
2023-05-15T14:28:36.629Z,11.70
2023-05-15T14:31:22.075Z,8.88
2023-05-15T14:33:54.433Z,11.32
2023-05-15T14:36:28.658Z,9.93
2023-05-15T14:39:00.423Z,7.43
2023-05-15T14:41:31.219Z,7.60
2023-05-15T14:44:02.258Z,7.07
2023-05-15T14:46:34.136Z,7.82
2023-05-15T14:49:13.225Z,7.65
2023-05-15T14:51:45.927Z,7.38
2023-05-15T14:54:17.240Z,8.27
2023-05-15T14:56:54.393Z,6.80
2023-05-15T14:59:33.621Z,6.82
2023-05-15T15:02:07.224Z,6.60
2023-05-15T15:04:38.776Z,8.00
2023-05-15T15:07:14.277Z,6.90
2023-05-15T15:09:45.831Z,5.88
2023-05-15T15:12:39.081Z,7.20
2023-05-15T15:15:15.084Z,8.07
2023-05-15T15:18:17.328Z,7.83
2023-05-15T15:20:47.659Z,8.57
2023-05-15T15:23:23.142Z,17.20
2023-05-15T15:25:59.499Z,9.70
2023-05-15T15:28:41.866Z,8.40
2023-05-15T15:31:13.039Z,8.37
2023-05-15T15:33:47.752Z,7.90
2023-05-15T15:36:17.830Z,8.10
2023-05-15T15:39:08.646Z,8.47
2023-05-15T15:41:45.651Z,7.67
2023-05-15T15:44:16.891Z,8.00
2023-05-15T15:47:03.463Z,7.50
2023-05-15T15:49:37.851Z,7.87
2023-05-15T15:52:14.101Z,8.03
2023-05-15T15:54:47.379Z,8.57
2023-05-15T15:57:35.357Z,8.57
2023-05-15T16:00:11.376Z,8.63
2023-05-15T16:02:44.369Z,8.53
2023-05-15T16:05:30.273Z,9.20
2023-05-15T16:08:02.230Z,9.63
2023-05-15T16:10:33.110Z,9.33
2023-05-15T16:13:12.736Z,10.53
2023-05-15T16:15:41.861Z,9.63
2023-05-15T16:18:28.844Z,9.17
2023-05-15T16:21:09.446Z,7.87
2023-05-15T16:23:40.563Z,8.17
2023-05-15T16:26:15.673Z,8.47
2023-05-15T16:28:47.783Z,7.47
2023-05-15T16:31:21.354Z,8.23
2023-05-15T16:33:53.181Z,8.80
2023-05-15T16:36:32.363Z,8.53
2023-05-15T16:39:15.576Z,7.03
2023-05-15T16:41:50.615Z,7.30
2023-05-15T16:44:21.803Z,6.23
2023-05-15T16:46:54.151Z,7.43
2023-05-15T16:49:31.558Z,7.03
2023-05-15T16:52:04.794Z,6.97
2023-05-15T16:54:42.373Z,7.30
2023-05-15T16:57:14.586Z,7.00
2023-05-15T16:59:45.367Z,6.47
2023-05-15T17:02:18.743Z,7.40
2023-05-15T17:04:48.333Z,7.37
2023-05-15T17:07:23.239Z,6.13
2023-05-15T17:09:56.001Z,6.30
2023-05-15T17:12:31.987Z,6.20
2023-05-15T17:15:13.932Z,5.47
2023-05-15T17:17:46.783Z,5.50
2023-05-15T17:20:20.448Z,5.17
2023-05-15T17:22:57.153Z,6.47
2023-05-15T17:25:36.150Z,6.10
2023-05-15T17:28:08.051Z,5.53
2023-05-15T17:30:38.857Z,5.83
2023-05-15T17:33:12.434Z,5.37
2023-05-15T17:35:42.283Z,5.20
2023-05-15T17:38:13.385Z,5.20
2023-05-15T17:40:44.949Z,4.80
2023-05-15T17:43:15.141Z,4.97
2023-05-15T17:45:46.408Z,4.73
2023-05-15T17:48:17.730Z,4.83
2023-05-15T17:50:47.935Z,4.83
2023-05-15T17:53:31.602Z,5.37
2023-05-15T17:56:03.591Z,5.00
2023-05-15T17:58:33.236Z,4.70
2023-05-15T18:01:11.214Z,4.70
2023-05-15T18:03:46.200Z,4.77
2023-05-15T18:06:15.890Z,4.33
2023-05-15T18:08:49.209Z,4.10
2023-05-15T18:11:22.381Z,3.90
2023-05-15T18:13:58.411Z,3.40
2023-05-15T18:16:31.447Z,4.07
2023-05-15T18:19:06.279Z,4.27
2023-05-15T18:21:37.819Z,4.87
2023-05-15T18:24:15.240Z,5.53
2023-05-15T18:26:56.835Z,6.13
2023-05-15T18:29:31.126Z,6.40
2023-05-15T18:32:05.599Z,6.73
2023-05-15T18:34:37.857Z,6.77
2023-05-15T18:37:07.583Z,7.40
2023-05-15T18:39:42.332Z,6.87
2023-05-15T18:42:18.629Z,6.60
2023-05-15T18:44:49.593Z,6.97
2023-05-15T18:47:26.403Z,6.07
2023-05-15T18:49:57.688Z,6.70
2023-05-15T18:52:29.771Z,6.90
2023-05-15T18:55:01.709Z,6.57
2023-05-15T18:57:31.373Z,6.53
2023-05-15T19:00:00.991Z,5.90
2023-05-15T19:02:33.642Z,5.67
2023-05-15T19:05:07.279Z,5.73
2023-05-15T19:07:37.284Z,5.80
2023-05-15T19:10:20.410Z,5.17
2023-05-15T19:12:49.498Z,5.10
2023-05-15T19:15:19.812Z,5.30
2023-05-15T19:17:49.975Z,4.90
2023-05-15T19:20:25.063Z,4.70
2023-05-15T19:22:57.622Z,5.27
2023-05-15T19:25:31.686Z,5.13
2023-05-15T19:28:04.874Z,4.90
2023-05-15T19:30:36.225Z,4.67
2023-05-15T19:33:06.437Z,5.40
2023-05-15T19:35:42.320Z,5.47
2023-05-15T19:38:13.391Z,4.90
2023-05-15T19:40:49.349Z,5.00
2023-05-15T19:43:22.913Z,4.50
2023-05-15T19:45:52.411Z,3.60
2023-05-15T19:48:22.335Z,3.23
2023-05-15T19:50:56.147Z,2.93
2023-05-15T19:53:31.206Z,2.50
2023-05-15T19:56:01.671Z,2.70
2023-05-15T19:58:32.906Z,2.20
2023-05-15T20:01:07.265Z,1.83
2023-05-15T20:03:37.262Z,2.10
2023-05-15T20:06:09.941Z,2.00
2023-05-15T20:08:43.625Z,1.93
2023-05-15T20:11:16.384Z,1.70
2023-05-15T20:13:48.962Z,1.50
2023-05-15T20:16:27.580Z,1.87
2023-05-15T20:19:03.400Z,1.23
2023-05-15T20:21:36.884Z,1.80
2023-05-15T20:24:19.363Z,1.70
2023-05-15T20:26:53.274Z,1.90
2023-05-15T20:29:32.657Z,2.17
2023-05-15T20:32:08.863Z,2.10
2023-05-15T20:34:43.253Z,2.10
2023-05-15T20:37:17.307Z,2.43
2023-05-15T20:39:53.374Z,2.80
2023-05-15T20:42:29.768Z,2.47
2023-05-15T20:45:00.493Z,2.10
2023-05-15T20:47:30.030Z,2.57
2023-05-15T20:49:59.493Z,1.63
2023-05-15T20:52:31.907Z,1.70
2023-05-15T20:55:01.845Z,2.13
2023-05-15T20:57:38.230Z,1.30
2023-05-15T21:00:10.472Z,1.43
2023-05-15T21:02:41.283Z,1.60
2023-05-15T21:05:12.910Z,1.57
2023-05-15T21:07:43.593Z,1.50
2023-05-15T21:10:17.525Z,1.67
2023-05-15T21:12:51.920Z,1.73
2023-05-15T21:15:27.125Z,2.10
2023-05-15T21:17:58.198Z,2.30
2023-05-15T21:20:31.944Z,2.20
2023-05-15T21:23:03.755Z,2.90
2023-05-15T21:25:37.152Z,2.37
2023-05-15T21:28:07.941Z,2.87
2023-05-15T21:30:37.780Z,2.73
2023-05-15T21:33:14.737Z,2.97
2023-05-15T21:35:44.523Z,2.77
2023-05-15T21:38:20.491Z,3.40
2023-05-15T21:40:51.209Z,3.37
2023-05-15T21:43:26.061Z,3.00
2023-05-15T21:45:59.190Z,3.33
2023-05-15T21:48:31.945Z,3.60
2023-05-15T21:51:02.171Z,3.10
2023-05-15T21:53:36.401Z,3.50
2023-05-15T21:56:09.563Z,3.47
2023-05-15T21:58:41.543Z,3.13
2023-05-15T22:01:12.394Z,2.97
2023-05-15T22:03:41.686Z,3.47
2023-05-15T22:06:14.300Z,3.40
2023-05-15T22:08:44.273Z,3.90
2023-05-15T22:11:18.389Z,3.73
2023-05-15T22:13:49.468Z,3.30
2023-05-15T22:16:26.904Z,3.77
2023-05-15T22:18:57.849Z,3.87
2023-05-15T22:21:29.408Z,3.60
2023-05-15T22:24:00.659Z,4.03
2023-05-15T22:26:34.112Z,3.50
2023-05-15T22:29:07.336Z,3.73
2023-05-15T22:31:41.992Z,3.83
2023-05-15T22:34:12.968Z,3.73
2023-05-15T22:36:46.046Z,3.67
2023-05-15T22:39:18.178Z,3.87
2023-05-15T22:41:48.443Z,3.50
2023-05-15T22:44:19.529Z,3.40
2023-05-15T22:46:54.392Z,3.87
2023-05-15T22:49:33.871Z,3.60
2023-05-15T22:52:04.630Z,3.60
2023-05-15T22:54:35.290Z,3.87
2023-05-15T22:57:06.109Z,4.00
2023-05-15T22:59:41.259Z,3.60
2023-05-15T23:02:10.928Z,4.43
2023-05-15T23:04:45.957Z,4.03
2023-05-15T23:07:17.643Z,3.70
2023-05-15T23:09:51.414Z,4.13
2023-05-15T23:12:22.204Z,3.93
2023-05-15T23:14:54.745Z,4.40
2023-05-15T23:17:27.108Z,4.10
2023-05-15T23:20:01.562Z,4.27
2023-05-15T23:22:32.454Z,4.77
2023-05-15T23:25:04.377Z,4.33
2023-05-15T23:27:34.416Z,4.10
2023-05-15T23:30:06.998Z,3.97
2023-05-15T23:32:39.586Z,4.20
2023-05-15T23:35:11.279Z,4.30
2023-05-15T23:37:40.528Z,3.50
2023-05-15T23:40:12.135Z,3.83
2023-05-15T23:42:41.177Z,4.97
2023-05-15T23:45:19.684Z,3.70
2023-05-15T23:47:49.456Z,4.20
2023-05-15T23:50:21.965Z,4.80
2023-05-15T23:52:51.847Z,4.13
2023-05-15T23:55:23.020Z,3.87
2023-05-15T23:57:53.442Z,3.67
